sensor_id;sensor_type;location;lat;lon;timestamp;P1;durP1;ratioP1;P2;durP2;ratioP2
29370;SDS011;16357;52.188;7.838;2022-09-13T00:01:47;7.75;;;5.30;;
29370;SDS011;16357;52.188;7.838;2022-09-13T00:04:13;6.10;;;5.50;;
29370;SDS011;16357;52.188;7.838;2022-09-13T00:06:40;6.88;;;5.43;;
29370;SDS011;16357;52.188;7.838;2022-09-13T00:09:06;7.25;;;6.03;;
29370;SDS011;16357;52.188;7.838;2022-09-13T00:11:33;6.93;;;5.70;;
29370;SDS011;16357;52.188;7.838;2022-09-13T00:14:00;6.90;;;5.47;;
29370;SDS011;16357;52.188;7.838;2022-09-13T00:16:28;7.30;;;5.38;;
29370;SDS011;16357;52.188;7.838;2022-09-13T00:18:55;7.90;;;5.63;;
29370;SDS011;16357;52.188;7.838;2022-09-13T00:21:22;5.60;;;4.95;;
29370;SDS011;16357;52.188;7.838;2022-09-13T00:23:50;6.10;;;5.13;;
29370;SDS011;16357;52.188;7.838;2022-09-13T00:26:19;9.75;;;5.82;;
29370;SDS011;16357;52.188;7.838;2022-09-13T00:28:49;9.45;;;5.80;;
29370;SDS011;16357;52.188;7.838;2022-09-13T00:31:17;7.75;;;5.90;;
29370;SDS011;16357;52.188;7.838;2022-09-13T00:33:44;7.47;;;6.15;;
29370;SDS011;16357;52.188;7.838;2022-09-13T00:36:11;7.35;;;5.95;;
29370;SDS011;16357;52.188;7.838;2022-09-13T00:38:38;7.90;;;5.95;;
29370;SDS011;16357;52.188;7.838;2022-09-13T00:41:05;7.38;;;5.20;;
29370;SDS011;16357;52.188;7.838;2022-09-13T00:43:43;6.65;;;5.57;;
29370;SDS011;16357;52.188;7.838;2022-09-13T00:48:56;6.93;;;5.53;;
29370;SDS011;16357;52.188;7.838;2022-09-13T00:51:44;6.20;;;5.50;;
29370;SDS011;16357;52.188;7.838;2022-09-13T00:54:21;9.32;;;5.80;;
29370;SDS011;16357;52.188;7.838;2022-09-13T00:56:52;6.22;;;5.13;;
29370;SDS011;16357;52.188;7.838;2022-09-13T00:59:25;9.00;;;5.47;;
29370;SDS011;16357;52.188;7.838;2022-09-13T01:01:55;7.15;;;5.35;;
29370;SDS011;16357;52.188;7.838;2022-09-13T01:04:24;6.30;;;5.20;;
29370;SDS011;16357;52.188;7.838;2022-09-13T01:06:53;6.35;;;5.53;;
29370;SDS011;16357;52.188;7.838;2022-09-13T01:09:24;7.65;;;5.60;;
29370;SDS011;16357;52.188;7.838;2022-09-13T01:11:53;6.95;;;5.22;;
29370;SDS011;16357;52.188;7.838;2022-09-13T01:14:25;6.32;;;5.47;;
29370;SDS011;16357;52.188;7.838;2022-09-13T01:16:53;7.82;;;5.45;;
29370;SDS011;16357;52.188;7.838;2022-09-13T01:19:19;6.65;;;5.65;;
29370;SDS011;16357;52.188;7.838;2022-09-13T01:30:02;7.03;;;5.60;;
29370;SDS011;16357;52.188;7.838;2022-09-13T01:41:01;6.25;;;4.97;;
29370;SDS011;16357;52.188;7.838;2022-09-13T01:49:19;6.93;;;5.75;;
29370;SDS011;16357;52.188;7.838;2022-09-13T01:55:04;6.93;;;5.38;;
29370;SDS011;16357;52.188;7.838;2022-09-13T01:57:47;7.45;;;5.72;;
29370;SDS011;16357;52.188;7.838;2022-09-13T02:00:28;7.05;;;5.03;;
29370;SDS011;16357;52.188;7.838;2022-09-13T02:03:01;7.22;;;5.60;;
29370;SDS011;16357;52.188;7.838;2022-09-13T02:05:30;8.18;;;6.22;;
29370;SDS011;16357;52.188;7.838;2022-09-13T02:08:08;6.10;;;5.15;;
29370;SDS011;16357;52.188;7.838;2022-09-13T02:10:41;7.15;;;5.78;;
29370;SDS011;16357;52.188;7.838;2022-09-13T02:13:15;8.70;;;6.10;;
29370;SDS011;16357;52.188;7.838;2022-09-13T02:15:46;6.68;;;5.55;;
29370;SDS011;16357;52.188;7.838;2022-09-13T02:18:20;10.95;;;5.80;;
29370;SDS011;16357;52.188;7.838;2022-09-13T02:20:56;7.43;;;6.05;;
29370;SDS011;16357;52.188;7.838;2022-09-13T02:23:28;7.50;;;5.88;;
29370;SDS011;16357;52.188;7.838;2022-09-13T02:25:59;8.20;;;5.75;;
29370;SDS011;16357;52.188;7.838;2022-09-13T02:28:31;7.15;;;6.05;;
29370;SDS011;16357;52.188;7.838;2022-09-13T02:31:02;8.23;;;5.60;;
29370;SDS011;16357;52.188;7.838;2022-09-13T02:33:34;8.43;;;6.05;;
29370;SDS011;16357;52.188;7.838;2022-09-13T02:36:06;6.85;;;5.80;;
29370;SDS011;16357;52.188;7.838;2022-09-13T02:41:35;7.15;;;6.30;;
29370;SDS011;16357;52.188;7.838;2022-09-13T02:44:13;7.82;;;6.28;;
29370;SDS011;16357;52.188;7.838;2022-09-13T02:52:32;8.95;;;6.38;;
29370;SDS011;16357;52.188;7.838;2022-09-13T02:55:09;6.88;;;5.97;;
29370;SDS011;16357;52.188;7.838;2022-09-13T02:57:46;8.18;;;6.03;;
29370;SDS011;16357;52.188;7.838;2022-09-13T03:00:20;7.55;;;6.20;;
29370;SDS011;16357;52.188;7.838;2022-09-13T03:02:47;6.95;;;5.63;;
29370;SDS011;16357;52.188;7.838;2022-09-13T03:05:15;7.65;;;6.07;;
29370;SDS011;16357;52.188;7.838;2022-09-13T03:07:42;6.75;;;5.85;;
29370;SDS011;16357;52.188;7.838;2022-09-13T03:10:09;6.22;;;5.63;;
29370;SDS011;16357;52.188;7.838;2022-09-13T03:15:32;6.20;;;5.50;;
29370;SDS011;16357;52.188;7.838;2022-09-13T03:18:28;7.30;;;5.82;;
29370;SDS011;16357;52.188;7.838;2022-09-13T03:21:09;7.55;;;5.38;;
29370;SDS011;16357;52.188;7.838;2022-09-13T03:23:44;7.40;;;6.22;;
29370;SDS011;16357;52.188;7.838;2022-09-13T03:26:31;6.22;;;5.63;;
29370;SDS011;16357;52.188;7.838;2022-09-13T03:29:39;6.50;;;5.80;;
29370;SDS011;16357;52.188;7.838;2022-09-13T03:32:34;5.97;;;5.28;;
29370;SDS011;16357;52.188;7.838;2022-09-13T03:38:12;6.95;;;5.80;;
29370;SDS011;16357;52.188;7.838;2022-09-13T03:40:48;7.05;;;6.22;;
29370;SDS011;16357;52.188;7.838;2022-09-13T03:43:20;8.10;;;6.53;;
29370;SDS011;16357;52.188;7.838;2022-09-13T03:45:54;8.18;;;6.65;;
29370;SDS011;16357;52.188;7.838;2022-09-13T03:48:24;7.45;;;6.63;;
29370;SDS011;16357;52.188;7.838;2022-09-13T03:50:52;6.88;;;5.85;;
29370;SDS011;16357;52.188;7.838;2022-09-13T03:53:20;7.15;;;5.47;;
29370;SDS011;16357;52.188;7.838;2022-09-13T03:55:50;13.00;;;6.70;;
29370;SDS011;16357;52.188;7.838;2022-09-13T03:58:17;7.40;;;6.15;;
29370;SDS011;16357;52.188;7.838;2022-09-13T04:00:45;9.15;;;6.30;;
29370;SDS011;16357;52.188;7.838;2022-09-13T04:03:12;7.45;;;6.32;;
29370;SDS011;16357;52.188;7.838;2022-09-13T04:05:39;6.72;;;5.45;;
29370;SDS011;16357;52.188;7.838;2022-09-13T04:08:06;8.23;;;6.15;;
29370;SDS011;16357;52.188;7.838;2022-09-13T04:10:34;6.63;;;5.85;;
29370;SDS011;16357;52.188;7.838;2022-09-13T04:13:02;7.95;;;5.22;;
29370;SDS011;16357;52.188;7.838;2022-09-13T04:15:30;10.27;;;6.15;;
29370;SDS011;16357;52.188;7.838;2022-09-13T04:17:56;7.65;;;5.75;;
29370;SDS011;16357;52.188;7.838;2022-09-13T04:20:23;10.00;;;6.07;;
29370;SDS011;16357;52.188;7.838;2022-09-13T04:22:53;8.52;;;6.55;;
29370;SDS011;16357;52.188;7.838;2022-09-13T04:25:21;9.90;;;6.43;;
29370;SDS011;16357;52.188;7.838;2022-09-13T04:27:55;7.05;;;5.78;;
29370;SDS011;16357;52.188;7.838;2022-09-13T04:30:23;6.15;;;5.55;;
29370;SDS011;16357;52.188;7.838;2022-09-13T04:32:50;8.20;;;6.30;;
29370;SDS011;16357;52.188;7.838;2022-09-13T04:35:17;7.32;;;6.22;;
29370;SDS011;16357;52.188;7.838;2022-09-13T04:37:44;7.03;;;6.25;;
29370;SDS011;16357;52.188;7.838;2022-09-13T04:40:11;8.52;;;5.72;;
29370;SDS011;16357;52.188;7.838;2022-09-13T04:42:39;8.75;;;6.07;;
29370;SDS011;16357;52.188;7.838;2022-09-13T04:45:05;9.45;;;6.15;;
29370;SDS011;16357;52.188;7.838;2022-09-13T04:47:32;8.30;;;6.50;;
29370;SDS011;16357;52.188;7.838;2022-09-13T04:49:58;9.55;;;6.53;;
29370;SDS011;16357;52.188;7.838;2022-09-13T04:52:25;10.45;;;6.80;;
29370;SDS011;16357;52.188;7.838;2022-09-13T04:54:51;8.90;;;6.47;;
29370;SDS011;16357;52.188;7.838;2022-09-13T04:57:17;8.68;;;7.30;;
29370;SDS011;16357;52.188;7.838;2022-09-13T04:59:44;7.63;;;6.25;;
29370;SDS011;16357;52.188;7.838;2022-09-13T05:02:10;7.47;;;6.28;;
29370;SDS011;16357;52.188;7.838;2022-09-13T05:04:37;7.88;;;6.05;;
29370;SDS011;16357;52.188;7.838;2022-09-13T05:07:03;10.63;;;6.53;;
29370;SDS011;16357;52.188;7.838;2022-09-13T05:09:30;8.75;;;6.20;;
29370;SDS011;16357;52.188;7.838;2022-09-13T05:11:56;9.10;;;5.97;;
29370;SDS011;16357;52.188;7.838;2022-09-13T05:14:23;9.18;;;6.55;;
29370;SDS011;16357;52.188;7.838;2022-09-13T05:16:49;8.77;;;6.45;;
29370;SDS011;16357;52.188;7.838;2022-09-13T05:19:15;8.10;;;6.57;;
29370;SDS011;16357;52.188;7.838;2022-09-13T05:21:42;7.70;;;6.40;;
29370;SDS011;16357;52.188;7.838;2022-09-13T05:24:09;9.18;;;6.60;;
29370;SDS011;16357;52.188;7.838;2022-09-13T05:26:35;12.20;;;6.38;;
29370;SDS011;16357;52.188;7.838;2022-09-13T05:29:02;6.88;;;5.97;;
29370;SDS011;16357;52.188;7.838;2022-09-13T05:31:33;7.47;;;6.40;;
29370;SDS011;16357;52.188;7.838;2022-09-13T05:34:03;7.43;;;5.88;;
29370;SDS011;16357;52.188;7.838;2022-09-13T05:36:35;7.38;;;6.40;;
29370;SDS011;16357;52.188;7.838;2022-09-13T05:39:02;6.90;;;5.88;;
29370;SDS011;16357;52.188;7.838;2022-09-13T05:41:50;8.43;;;6.50;;
29370;SDS011;16357;52.188;7.838;2022-09-13T05:44:16;8.20;;;6.40;;
29370;SDS011;16357;52.188;7.838;2022-09-13T05:46:45;7.70;;;6.43;;
29370;SDS011;16357;52.188;7.838;2022-09-13T05:49:12;8.30;;;6.25;;
29370;SDS011;16357;52.188;7.838;2022-09-13T05:51:39;8.82;;;7.10;;
29370;SDS011;16357;52.188;7.838;2022-09-13T05:54:06;8.90;;;7.10;;
29370;SDS011;16357;52.188;7.838;2022-09-13T05:56:32;8.32;;;6.82;;
29370;SDS011;16357;52.188;7.838;2022-09-13T05:58:59;8.75;;;6.65;;
29370;SDS011;16357;52.188;7.838;2022-09-13T06:01:26;7.93;;;6.28;;
29370;SDS011;16357;52.188;7.838;2022-09-13T06:03:54;10.82;;;6.55;;
29370;SDS011;16357;52.188;7.838;2022-09-13T06:06:22;9.77;;;6.38;;
29370;SDS011;16357;52.188;7.838;2022-09-13T06:08:53;8.82;;;6.13;;
29370;SDS011;16357;52.188;7.838;2022-09-13T06:11:21;9.07;;;6.90;;
29370;SDS011;16357;52.188;7.838;2022-09-13T06:13:48;14.38;;;6.63;;
29370;SDS011;16357;52.188;7.838;2022-09-13T06:16:15;10.02;;;7.55;;
29370;SDS011;16357;52.188;7.838;2022-09-13T06:18:42;8.15;;;6.82;;
29370;SDS011;16357;52.188;7.838;2022-09-13T06:21:11;8.93;;;7.30;;
29370;SDS011;16357;52.188;7.838;2022-09-13T06:23:44;8.10;;;6.80;;
29370;SDS011;16357;52.188;7.838;2022-09-13T06:26:16;9.88;;;7.22;;
29370;SDS011;16357;52.188;7.838;2022-09-13T06:28:51;9.40;;;6.93;;
29370;SDS011;16357;52.188;7.838;2022-09-13T06:31:20;9.45;;;6.57;;
29370;SDS011;16357;52.188;7.838;2022-09-13T06:33:48;7.85;;;6.53;;
29370;SDS011;16357;52.188;7.838;2022-09-13T06:36:22;9.93;;;7.20;;
29370;SDS011;16357;52.188;7.838;2022-09-13T06:38:49;9.00;;;6.72;;
29370;SDS011;16357;52.188;7.838;2022-09-13T06:41:16;7.97;;;6.50;;
29370;SDS011;16357;52.188;7.838;2022-09-13T06:43:44;10.55;;;7.20;;
29370;SDS011;16357;52.188;7.838;2022-09-13T06:46:14;9.18;;;6.82;;
29370;SDS011;16357;52.188;7.838;2022-09-13T06:51:16;7.63;;;6.82;;
29370;SDS011;16357;52.188;7.838;2022-09-13T06:53:44;9.68;;;8.07;;
29370;SDS011;16357;52.188;7.838;2022-09-13T06:56:17;9.32;;;7.00;;
29370;SDS011;16357;52.188;7.838;2022-09-13T06:58:44;10.65;;;7.72;;
29370;SDS011;16357;52.188;7.838;2022-09-13T07:01:17;9.98;;;7.88;;
29370;SDS011;16357;52.188;7.838;2022-09-13T07:03:50;10.43;;;7.97;;
29370;SDS011;16357;52.188;7.838;2022-09-13T07:06:19;9.32;;;7.72;;
29370;SDS011;16357;52.188;7.838;2022-09-13T07:08:48;8.02;;;7.00;;
29370;SDS011;16357;52.188;7.838;2022-09-13T07:11:17;10.10;;;7.50;;
29370;SDS011;16357;52.188;7.838;2022-09-13T07:13:48;10.38;;;6.90;;
29370;SDS011;16357;52.188;7.838;2022-09-13T07:16:19;13.15;;;7.80;;
29370;SDS011;16357;52.188;7.838;2022-09-13T07:18:53;8.50;;;7.35;;
29370;SDS011;16357;52.188;7.838;2022-09-13T07:21:21;9.40;;;7.90;;
29370;SDS011;16357;52.188;7.838;2022-09-13T07:23:49;11.35;;;7.57;;
29370;SDS011;16357;52.188;7.838;2022-09-13T07:26:17;8.73;;;7.18;;
29370;SDS011;16357;52.188;7.838;2022-09-13T07:28:44;9.30;;;8.20;;
29370;SDS011;16357;52.188;7.838;2022-09-13T07:31:22;9.65;;;8.07;;
29370;SDS011;16357;52.188;7.838;2022-09-13T07:33:54;12.05;;;8.98;;
29370;SDS011;16357;52.188;7.838;2022-09-13T07:36:31;11.50;;;8.80;;
29370;SDS011;16357;52.188;7.838;2022-09-13T07:38:59;10.95;;;8.45;;
29370;SDS011;16357;52.188;7.838;2022-09-13T07:41:27;10.05;;;8.88;;
29370;SDS011;16357;52.188;7.838;2022-09-13T07:43:54;12.82;;;8.95;;
29370;SDS011;16357;52.188;7.838;2022-09-13T07:46:22;10.32;;;8.98;;
29370;SDS011;16357;52.188;7.838;2022-09-13T07:48:51;14.63;;;9.57;;
29370;SDS011;16357;52.188;7.838;2022-09-13T07:51:27;11.45;;;9.10;;
29370;SDS011;16357;52.188;7.838;2022-09-13T07:53:58;11.68;;;8.75;;
29370;SDS011;16357;52.188;7.838;2022-09-13T07:56:28;10.20;;;8.52;;
29370;SDS011;16357;52.188;7.838;2022-09-13T07:58:57;11.95;;;9.30;;
29370;SDS011;16357;52.188;7.838;2022-09-13T08:01:26;10.60;;;9.00;;
29370;SDS011;16357;52.188;7.838;2022-09-13T08:03:59;11.40;;;9.88;;
29370;SDS011;16357;52.188;7.838;2022-09-13T08:06:27;14.45;;;10.35;;
29370;SDS011;16357;52.188;7.838;2022-09-13T08:08:56;11.50;;;9.48;;
29370;SDS011;16357;52.188;7.838;2022-09-13T08:11:30;13.30;;;9.95;;
29370;SDS011;16357;52.188;7.838;2022-09-13T08:13:59;13.77;;;9.30;;
29370;SDS011;16357;52.188;7.838;2022-09-13T08:16:26;14.30;;;10.77;;
29370;SDS011;16357;52.188;7.838;2022-09-13T08:18:54;13.85;;;11.27;;
29370;SDS011;16357;52.188;7.838;2022-09-13T08:21:23;13.50;;;11.13;;
29370;SDS011;16357;52.188;7.838;2022-09-13T08:23:56;16.98;;;11.48;;
29370;SDS011;16357;52.188;7.838;2022-09-13T08:26:29;16.37;;;12.27;;
29370;SDS011;16357;52.188;7.838;2022-09-13T08:28:57;13.35;;;10.80;;
29370;SDS011;16357;52.188;7.838;2022-09-13T08:31:25;16.20;;;10.80;;
29370;SDS011;16357;52.188;7.838;2022-09-13T08:33:53;17.20;;;11.60;;
29370;SDS011;16357;52.188;7.838;2022-09-13T08:36:21;14.45;;;11.50;;
29370;SDS011;16357;52.188;7.838;2022-09-13T08:38:52;16.92;;;11.13;;
29370;SDS011;16357;52.188;7.838;2022-09-13T08:44:29;14.20;;;11.05;;
29370;SDS011;16357;52.188;7.838;2022-09-13T08:47:03;14.88;;;11.90;;
29370;SDS011;16357;52.188;7.838;2022-09-13T08:49:43;17.15;;;11.85;;
29370;SDS011;16357;52.188;7.838;2022-09-13T08:54:40;14.20;;;11.45;;
29370;SDS011;16357;52.188;7.838;2022-09-13T08:57:12;14.27;;;11.60;;
29370;SDS011;16357;52.188;7.838;2022-09-13T09:07:41;14.65;;;10.65;;
29370;SDS011;16357;52.188;7.838;2022-09-13T09:10:20;15.30;;;11.40;;
29370;SDS011;16357;52.188;7.838;2022-09-13T09:15:21;12.85;;;10.45;;
29370;SDS011;16357;52.188;7.838;2022-09-13T09:17:57;15.90;;;11.05;;
29370;SDS011;16357;52.188;7.838;2022-09-13T09:20:37;13.00;;;10.63;;
29370;SDS011;16357;52.188;7.838;2022-09-13T09:23:12;13.25;;;9.95;;
29370;SDS011;16357;52.188;7.838;2022-09-13T09:25:46;14.05;;;10.98;;
29370;SDS011;16357;52.188;7.838;2022-09-13T09:28:16;18.23;;;11.45;;
29370;SDS011;16357;52.188;7.838;2022-09-13T09:34:09;14.15;;;11.10;;
29370;SDS011;16357;52.188;7.838;2022-09-13T09:39:16;17.20;;;11.77;;
29370;SDS011;16357;52.188;7.838;2022-09-13T09:41:43;12.88;;;10.75;;
29370;SDS011;16357;52.188;7.838;2022-09-13T09:44:14;14.90;;;10.93;;
29370;SDS011;16357;52.188;7.838;2022-09-13T09:49:47;16.33;;;11.25;;
29370;SDS011;16357;52.188;7.838;2022-09-13T09:52:41;14.32;;;11.32;;
29370;SDS011;16357;52.188;7.838;2022-09-13T09:58:11;12.93;;;10.95;;
29370;SDS011;16357;52.188;7.838;2022-09-13T10:00:54;18.20;;;12.25;;
29370;SDS011;16357;52.188;7.838;2022-09-13T10:03:27;16.77;;;12.05;;
29370;SDS011;16357;52.188;7.838;2022-09-13T10:06:05;14.43;;;11.68;;
29370;SDS011;16357;52.188;7.838;2022-09-13T10:08:39;14.15;;;11.45;;
29370;SDS011;16357;52.188;7.838;2022-09-13T10:11:07;14.18;;;11.10;;
29370;SDS011;16357;52.188;7.838;2022-09-13T10:13:34;13.73;;;11.35;;
29370;SDS011;16357;52.188;7.838;2022-09-13T10:16:03;12.93;;;10.13;;
29370;SDS011;16357;52.188;7.838;2022-09-13T10:18:32;13.73;;;10.73;;
29370;SDS011;16357;52.188;7.838;2022-09-13T10:23:43;10.75;;;9.55;;
29370;SDS011;16357;52.188;7.838;2022-09-13T10:26:13;11.88;;;9.57;;
29370;SDS011;16357;52.188;7.838;2022-09-13T10:28:44;10.77;;;8.38;;
29370;SDS011;16357;52.188;7.838;2022-09-13T10:31:15;9.80;;;7.43;;
29370;SDS011;16357;52.188;7.838;2022-09-13T10:33:56;8.45;;;6.63;;
29370;SDS011;16357;52.188;7.838;2022-09-13T10:36:35;7.05;;;5.50;;
29370;SDS011;16357;52.188;7.838;2022-09-13T10:39:19;6.38;;;5.13;;
29370;SDS011;16357;52.188;7.838;2022-09-13T10:41:49;8.65;;;5.13;;
29370;SDS011;16357;52.188;7.838;2022-09-13T10:44:22;6.43;;;5.50;;
29370;SDS011;16357;52.188;7.838;2022-09-13T10:47:07;6.70;;;4.90;;
29370;SDS011;16357;52.188;7.838;2022-09-13T10:49:40;4.78;;;3.88;;
29370;SDS011;16357;52.188;7.838;2022-09-13T10:52:40;4.40;;;3.80;;
29370;SDS011;16357;52.188;7.838;2022-09-13T10:57:41;4.35;;;3.60;;
29370;SDS011;16357;52.188;7.838;2022-09-13T11:00:10;6.35;;;4.15;;
29370;SDS011;16357;52.188;7.838;2022-09-13T11:05:47;8.50;;;4.10;;
29370;SDS011;16357;52.188;7.838;2022-09-13T11:17:12;4.05;;;3.20;;
29370;SDS011;16357;52.188;7.838;2022-09-13T11:19:58;3.95;;;2.85;;
29370;SDS011;16357;52.188;7.838;2022-09-13T11:22:54;4.65;;;3.15;;
29370;SDS011;16357;52.188;7.838;2022-09-13T11:28:18;4.80;;;3.13;;
29370;SDS011;16357;52.188;7.838;2022-09-13T11:31:08;3.95;;;2.85;;
29370;SDS011;16357;52.188;7.838;2022-09-13T11:37:11;4.75;;;3.30;;
29370;SDS011;16357;52.188;7.838;2022-09-13T11:42:31;3.95;;;2.60;;
29370;SDS011;16357;52.188;7.838;2022-09-13T11:45:08;3.42;;;2.53;;
29370;SDS011;16357;52.188;7.838;2022-09-13T11:58:55;3.80;;;3.05;;
29370;SDS011;16357;52.188;7.838;2022-09-13T12:01:37;3.60;;;2.50;;
29370;SDS011;16357;52.188;7.838;2022-09-13T12:04:08;3.30;;;2.30;;
29370;SDS011;16357;52.188;7.838;2022-09-13T12:06:46;3.15;;;2.22;;
29370;SDS011;16357;52.188;7.838;2022-09-13T12:09:21;3.25;;;2.03;;
29370;SDS011;16357;52.188;7.838;2022-09-13T12:11:52;2.95;;;1.88;;
29370;SDS011;16357;52.188;7.838;2022-09-13T12:14:29;3.00;;;1.50;;
29370;SDS011;16357;52.188;7.838;2022-09-13T12:17:03;10.63;;;1.50;;
29370;SDS011;16357;52.188;7.838;2022-09-13T12:22:21;2.15;;;1.30;;
29370;SDS011;16357;52.188;7.838;2022-09-13T12:27:36;2.25;;;0.80;;
29370;SDS011;16357;52.188;7.838;2022-09-13T12:30:15;1.00;;;0.90;;
29370;SDS011;16357;52.188;7.838;2022-09-13T12:32:42;3.42;;;1.00;;
29370;SDS011;16357;52.188;7.838;2022-09-13T12:35:25;1.92;;;0.90;;
29370;SDS011;16357;52.188;7.838;2022-09-13T12:38:13;1.73;;;1.00;;
29370;SDS011;16357;52.188;7.838;2022-09-13T12:49:23;6.95;;;1.00;;
29370;SDS011;16357;52.188;7.838;2022-09-13T12:57:30;1.25;;;0.70;;
29370;SDS011;16357;52.188;7.838;2022-09-13T13:08:00;1.38;;;0.85;;
29370;SDS011;16357;52.188;7.838;2022-09-13T13:10:30;1.02;;;0.50;;
29370;SDS011;16357;52.188;7.838;2022-09-13T13:13:08;5.45;;;1.10;;
29370;SDS011;16357;52.188;7.838;2022-09-13T13:23:33;1.80;;;0.60;;
29370;SDS011;16357;52.188;7.838;2022-09-13T13:38:59;3.35;;;0.85;;
29370;SDS011;16357;52.188;7.838;2022-09-13T13:41:35;2.05;;;0.88;;
29370;SDS011;16357;52.188;7.838;2022-09-13T13:57:04;2.25;;;0.65;;
29370;SDS011;16357;52.188;7.838;2022-09-13T13:59:53;3.10;;;0.98;;
29370;SDS011;16357;52.188;7.838;2022-09-13T14:02:38;4.93;;;0.93;;
29370;SDS011;16357;52.188;7.838;2022-09-13T14:05:32;4.28;;;0.77;;
29370;SDS011;16357;52.188;7.838;2022-09-13T14:14:15;2.10;;;0.70;;
29370;SDS011;16357;52.188;7.838;2022-09-13T14:19:44;1.77;;;0.60;;
29370;SDS011;16357;52.188;7.838;2022-09-13T14:24:45;2.55;;;0.73;;
29370;SDS011;16357;52.188;7.838;2022-09-13T14:27:15;1.52;;;0.80;;
29370;SDS011;16357;52.188;7.838;2022-09-13T14:29:54;1.80;;;0.70;;
29370;SDS011;16357;52.188;7.838;2022-09-13T14:32:26;6.00;;;0.98;;
29370;SDS011;16357;52.188;7.838;2022-09-13T14:35:05;1.13;;;0.60;;
29370;SDS011;16357;52.188;7.838;2022-09-13T14:37:34;0.63;;;0.60;;
29370;SDS011;16357;52.188;7.838;2022-09-13T14:40:19;1.25;;;0.60;;
29370;SDS011;16357;52.188;7.838;2022-09-13T14:42:49;1.73;;;0.98;;
29370;SDS011;16357;52.188;7.838;2022-09-13T14:45:27;1.45;;;0.55;;
29370;SDS011;16357;52.188;7.838;2022-09-13T14:48:07;1.55;;;0.77;;
29370;SDS011;16357;52.188;7.838;2022-09-13T14:50:50;2.20;;;0.60;;
29370;SDS011;16357;52.188;7.838;2022-09-13T14:53:20;2.70;;;0.82;;
29370;SDS011;16357;52.188;7.838;2022-09-13T14:55:54;1.27;;;0.80;;
29370;SDS011;16357;52.188;7.838;2022-09-13T14:58:26;3.25;;;1.33;;
29370;SDS011;16357;52.188;7.838;2022-09-13T15:01:01;2.15;;;0.90;;
29370;SDS011;16357;52.188;7.838;2022-09-13T15:03:32;2.10;;;0.80;;
29370;SDS011;16357;52.188;7.838;2022-09-13T15:06:00;2.05;;;0.80;;
29370;SDS011;16357;52.188;7.838;2022-09-13T15:11:01;1.10;;;0.60;;
29370;SDS011;16357;52.188;7.838;2022-09-13T15:13:32;2.30;;;0.80;;
29370;SDS011;16357;52.188;7.838;2022-09-13T15:15:59;1.92;;;0.63;;
29370;SDS011;16357;52.188;7.838;2022-09-13T15:18:30;1.67;;;1.10;;
29370;SDS011;16357;52.188;7.838;2022-09-13T15:21:05;1.85;;;0.80;;
29370;SDS011;16357;52.188;7.838;2022-09-13T15:23:48;1.30;;;0.68;;
29370;SDS011;16357;52.188;7.838;2022-09-13T15:26:19;1.77;;;0.73;;
29370;SDS011;16357;52.188;7.838;2022-09-13T15:28:49;1.08;;;0.80;;
29370;SDS011;16357;52.188;7.838;2022-09-13T15:31:28;2.45;;;0.80;;
29370;SDS011;16357;52.188;7.838;2022-09-13T15:34:09;2.95;;;0.90;;
29370;SDS011;16357;52.188;7.838;2022-09-13T15:36:42;3.20;;;0.97;;
29370;SDS011;16357;52.188;7.838;2022-09-13T15:39:14;3.25;;;0.68;;
29370;SDS011;16357;52.188;7.838;2022-09-13T15:41:52;1.83;;;0.70;;
29370;SDS011;16357;52.188;7.838;2022-09-13T15:44:20;4.25;;;0.88;;
29370;SDS011;16357;52.188;7.838;2022-09-13T15:46:50;2.42;;;1.00;;
29370;SDS011;16357;52.188;7.838;2022-09-13T15:49:20;3.13;;;0.80;;
29370;SDS011;16357;52.188;7.838;2022-09-13T15:51:58;2.85;;;0.77;;
29370;SDS011;16357;52.188;7.838;2022-09-13T15:54:34;1.08;;;0.68;;
29370;SDS011;16357;52.188;7.838;2022-09-13T15:57:04;4.05;;;0.80;;
29370;SDS011;16357;52.188;7.838;2022-09-13T15:59:33;2.03;;;0.70;;
29370;SDS011;16357;52.188;7.838;2022-09-13T16:02:01;2.53;;;0.85;;
29370;SDS011;16357;52.188;7.838;2022-09-13T16:04:39;3.33;;;0.95;;
29370;SDS011;16357;52.188;7.838;2022-09-13T16:07:06;2.90;;;0.98;;
29370;SDS011;16357;52.188;7.838;2022-09-13T16:09:33;2.78;;;0.73;;
29370;SDS011;16357;52.188;7.838;2022-09-13T16:11:59;1.77;;;0.85;;
29370;SDS011;16357;52.188;7.838;2022-09-13T16:14:27;4.07;;;0.90;;
29370;SDS011;16357;52.188;7.838;2022-09-13T16:16:53;3.10;;;0.77;;
29370;SDS011;16357;52.188;7.838;2022-09-13T16:19:21;3.75;;;0.95;;
29370;SDS011;16357;52.188;7.838;2022-09-13T16:21:50;1.80;;;0.68;;
29370;SDS011;16357;52.188;7.838;2022-09-13T16:24:16;2.85;;;0.68;;
29370;SDS011;16357;52.188;7.838;2022-09-13T16:26:43;2.33;;;0.77;;
29370;SDS011;16357;52.188;7.838;2022-09-13T16:29:10;4.05;;;1.20;;
29370;SDS011;16357;52.188;7.838;2022-09-13T16:31:37;3.03;;;0.82;;
29370;SDS011;16357;52.188;7.838;2022-09-13T16:34:04;2.30;;;0.70;;
29370;SDS011;16357;52.188;7.838;2022-09-13T16:36:31;7.53;;;1.20;;
29370;SDS011;16357;52.188;7.838;2022-09-13T16:38:59;2.25;;;0.90;;
29370;SDS011;16357;52.188;7.838;2022-09-13T16:41:26;4.28;;;0.82;;
29370;SDS011;16357;52.188;7.838;2022-09-13T16:43:53;1.77;;;0.60;;
29370;SDS011;16357;52.188;7.838;2022-09-13T16:46:20;1.30;;;0.60;;
29370;SDS011;16357;52.188;7.838;2022-09-13T16:48:53;2.30;;;0.70;;
29370;SDS011;16357;52.188;7.838;2022-09-13T16:51:21;2.55;;;0.80;;
29370;SDS011;16357;52.188;7.838;2022-09-13T16:53:49;3.35;;;0.65;;
29370;SDS011;16357;52.188;7.838;2022-09-13T16:56:18;1.80;;;0.70;;
29370;SDS011;16357;52.188;7.838;2022-09-13T16:58:46;3.63;;;1.05;;
29370;SDS011;16357;52.188;7.838;2022-09-13T17:01:15;2.88;;;0.80;;
29370;SDS011;16357;52.188;7.838;2022-09-13T17:03:44;1.65;;;0.70;;
29370;SDS011;16357;52.188;7.838;2022-09-13T17:06:11;1.85;;;0.70;;
29370;SDS011;16357;52.188;7.838;2022-09-13T17:08:40;2.08;;;0.80;;
29370;SDS011;16357;52.188;7.838;2022-09-13T17:11:10;3.28;;;0.50;;
29370;SDS011;16357;52.188;7.838;2022-09-13T17:13:41;1.30;;;0.52;;
29370;SDS011;16357;52.188;7.838;2022-09-13T17:16:17;2.45;;;0.88;;
29370;SDS011;16357;52.188;7.838;2022-09-13T17:18:56;3.10;;;0.88;;
29370;SDS011;16357;52.188;7.838;2022-09-13T17:21:24;2.05;;;1.05;;
29370;SDS011;16357;52.188;7.838;2022-09-13T17:23:52;1.50;;;0.70;;
29370;SDS011;16357;52.188;7.838;2022-09-13T17:26:20;1.65;;;0.63;;
29370;SDS011;16357;52.188;7.838;2022-09-13T17:28:47;1.35;;;0.70;;
29370;SDS011;16357;52.188;7.838;2022-09-13T17:31:14;2.58;;;0.88;;
29370;SDS011;16357;52.188;7.838;2022-09-13T17:33:41;1.98;;;0.80;;
29370;SDS011;16357;52.188;7.838;2022-09-13T17:36:08;1.85;;;0.80;;
29370;SDS011;16357;52.188;7.838;2022-09-13T17:38:36;2.10;;;0.77;;
29370;SDS011;16357;52.188;7.838;2022-09-13T17:41:04;2.42;;;0.95;;
29370;SDS011;16357;52.188;7.838;2022-09-13T17:43:36;2.25;;;0.80;;
29370;SDS011;16357;52.188;7.838;2022-09-13T17:46:04;3.90;;;0.90;;
29370;SDS011;16357;52.188;7.838;2022-09-13T17:48:33;1.77;;;0.80;;
29370;SDS011;16357;52.188;7.838;2022-09-13T17:51:00;4.10;;;0.93;;
29370;SDS011;16357;52.188;7.838;2022-09-13T17:53:28;5.07;;;0.95;;
29370;SDS011;16357;52.188;7.838;2022-09-13T17:55:55;4.18;;;0.82;;
29370;SDS011;16357;52.188;7.838;2022-09-13T17:58:24;2.33;;;0.90;;
29370;SDS011;16357;52.188;7.838;2022-09-13T18:00:58;2.15;;;0.80;;
29370;SDS011;16357;52.188;7.838;2022-09-13T18:03:35;2.17;;;0.80;;
29370;SDS011;16357;52.188;7.838;2022-09-13T18:06:04;2.65;;;0.70;;
29370;SDS011;16357;52.188;7.838;2022-09-13T18:08:33;2.00;;;0.70;;
29370;SDS011;16357;52.188;7.838;2022-09-13T18:11:04;3.08;;;0.80;;
29370;SDS011;16357;52.188;7.838;2022-09-13T18:13:39;4.43;;;1.05;;
29370;SDS011;16357;52.188;7.838;2022-09-13T18:16:07;1.65;;;0.73;;